Algosoo — VGJD — position and weather

sailwx.info

Track history (hours):
 
Tides and Currents Weather Stations Pressure Air Temp Water Temp Dewpoint Dewpoint Depression Visibility Wind Speed Wind Dir Waves Ship Positions

Algosoo

Last reported at 2014-Nov-01 12:19 UTC. Time now 2014-Nov-01 13:26 UTC.
Position N 46°10' W 072°56'.

Length 223 m; draft 8 m.

Type: Cargo ship. MMSI: 316001799.

Date/timePositionNaut miles runAvg speedWind from/ knotsBaromVisibWave heightAir tempDewpointWater temp
2014-Nov-01 12:19N 46°10' W 072°56'8 8.3
2014-Nov-01 11:18N 46°14' W 072°46'6 8.1
2014-Nov-01 10:33N 46°16' W 072°38'6 6.2
2014-Nov-01 09:33N 46°21' W 072°31'8 7.8
2014-Nov-01 08:33N 46°25' W 072°22'8 7.8
2014-Nov-01 07:33N 46°30' W 072°14'  
2014-Oct-27 15:27N 46°35' W 072°02'1010.7
2014-Oct-27 14:33N 46°30' W 072°14'1010.1
2014-Oct-27 13:33N 46°23' W 072°25'1110.9
2014-Oct-27 12:33N 46°16' W 072°37'1110.7
2014-Oct-27 11:33N 46°12' W 072°51'1510.6
2014-Oct-27 10:08N 46°03' W 073°09'711.5
2014-Oct-27 09:34N 45°57' W 073°13'1111.4
2014-Oct-27 08:33N 45°47' W 073°21'1111.4
2014-Oct-27 07:33N 45°37' W 073°30'8 7.8
2014-Oct-27 06:33N 45°30' W 073°31'1 1.3
2014-Oct-27 05:33N 45°28' W 073°30'4 4.4
2014-Oct-27 04:33N 45°24' W 073°33'1 1.3
2014-Oct-27 03:33N 45°24' W 073°35'4 4.4
2014-Oct-27 02:34N 45°25' W 073°41'9 8.8
2014-Oct-27 01:33N 45°21' W 073°52'3 3.3
2014-Oct-27 00:33N 45°19' W 073°55'2 1.7
2014-Oct-26 23:33N 45°17' W 073°57'8 8.3
2014-Oct-26 22:33N 45°14' W 074°07'10 9.6
2014-Oct-26 21:33N 45°10' W 074°20'95 7.7
2014-Oct-26 09:12N 44°14' W 076°07'710.6
2014-Oct-26 08:33N 44°12' W 076°17'8 8.4
2014-Oct-26 07:33N 44°06' W 076°24'170 6.8
2014-Oct-25 06:31N 42°36' W 079°42'1010.8
2014-Oct-25 05:33N 42°29' W 079°53'1210.7
2014-Oct-25 04:26N 42°24' W 080°08'  
Track history (hours):
 
Tides and Currents Weather Stations Pressure Air Temp Water Temp Dewpoint Dewpoint Depression Visibility Wind Speed Wind Dir Waves Ship Positions

Algosoo

Last reported at 2014-Nov-01 12:19 UTC. Time now 2014-Nov-01 13:26 UTC.
Position N 46°10' W 072°56'.

Length 223 m; draft 8 m.

Type: Cargo ship. MMSI: 316001799.

Date/timePositionNaut miles runAvg speedWind from/ knotsBaromVisibWave heightAir tempDewpointWater temp
2014-Nov-01 12:19N 46°10' W 072°56'8 8.3
2014-Nov-01 11:18N 46°14' W 072°46'6 8.1
2014-Nov-01 10:33N 46°16' W 072°38'6 6.2
2014-Nov-01 09:33N 46°21' W 072°31'8 7.8
2014-Nov-01 08:33N 46°25' W 072°22'8 7.8
2014-Nov-01 07:33N 46°30' W 072°14'  
2014-Oct-27 15:27N 46°35' W 072°02'1010.7
2014-Oct-27 14:33N 46°30' W 072°14'1010.1
2014-Oct-27 13:33N 46°23' W 072°25'1110.9
2014-Oct-27 12:33N 46°16' W 072°37'1110.7
2014-Oct-27 11:33N 46°12' W 072°51'1510.6
2014-Oct-27 10:08N 46°03' W 073°09'711.5
2014-Oct-27 09:34N 45°57' W 073°13'1111.4
2014-Oct-27 08:33N 45°47' W 073°21'1111.4
2014-Oct-27 07:33N 45°37' W 073°30'8 7.8
2014-Oct-27 06:33N 45°30' W 073°31'1 1.3
2014-Oct-27 05:33N 45°28' W 073°30'4 4.4
2014-Oct-27 04:33N 45°24' W 073°33'1 1.3
2014-Oct-27 03:33N 45°24' W 073°35'4 4.4
2014-Oct-27 02:34N 45°25' W 073°41'9 8.8
2014-Oct-27 01:33N 45°21' W 073°52'3 3.3
2014-Oct-27 00:33N 45°19' W 073°55'2 1.7
2014-Oct-26 23:33N 45°17' W 073°57'8 8.3
2014-Oct-26 22:33N 45°14' W 074°07'10 9.6
2014-Oct-26 21:33N 45°10' W 074°20'95 7.7
2014-Oct-26 09:12N 44°14' W 076°07'710.6
2014-Oct-26 08:33N 44°12' W 076°17'8 8.4
2014-Oct-26 07:33N 44°06' W 076°24'170 6.8
2014-Oct-25 06:31N 42°36' W 079°42'1010.8
2014-Oct-25 05:33N 42°29' W 079°53'1210.7
2014-Oct-25 04:26N 42°24' W 080°08'  

Dump ship's entire track history